Time;durP1;ratioP1;P1;durP2;ratioP2;P2;SDS_P1;SDS_P2;PMS_P1;PMS_P2;Temp;Humidity;BMP_temperature;BMP_pressure;BME280_temperature;BME280_humidity;BME280_pressure;Samples;Min_cycle;Max_cycle;Signal;HPM_P1;HPM_P2
2023/09/11 00:00:56;;;;;;;;;25.00;23.75;;;;;30.52;44.20;100961.72;4973094;28;45548;-64
2023/09/11 00:03:25;;;;;;;;;22.25;20.50;;;;;30.43;43.47;100963.31;4972728;28;46631;-65
2023/09/11 00:05:51;;;;;;;;;24.00;24.00;;;;;30.33;43.63;100958.75;4943430;28;45466;-67
2023/09/11 00:08:16;;;;;;;;;25.75;22.25;;;;;30.24;44.23;100954.88;4970586;28;45495;-68
2023/09/11 00:10:42;;;;;;;;;23.50;22.50;;;;;30.10;44.24;100947.84;4974752;28;45527;-65
2023/09/11 00:13:07;;;;;;;;;25.00;23.00;;;;;30.00;45.27;100957.63;4946943;28;46474;-66
2023/09/11 00:15:34;;;;;;;;;24.75;24.00;;;;;29.86;45.04;100953.28;4960524;28;45440;-67
2023/09/11 00:18:01;;;;;;;;;23.50;23.50;;;;;29.92;45.71;100951.94;4962692;28;45389;-68
2023/09/11 00:20:26;;;;;;;;;27.00;24.50;;;;;29.91;44.97;100948.38;4952252;28;45609;-66
2023/09/11 00:22:52;;;;;;;;;20.75;20.75;;;;;29.96;44.87;100943.50;4962872;28;45312;-68
2023/09/11 00:25:18;;;;;;;;;19.00;18.75;;;;;30.05;44.37;100949.19;4956873;28;45717;-64
2023/09/11 00:27:43;;;;;;;;;20.75;19.75;;;;;30.08;44.25;100952.50;4970240;28;45440;-65
2023/09/11 00:30:09;;;;;;;;;20.50;19.50;;;;;30.10;44.41;100947.00;4961368;28;45509;-67
2023/09/11 00:32:36;;;;;;;;;20.50;18.50;;;;;30.13;44.10;100952.16;4963853;28;45435;-67
2023/09/11 00:35:02;;;;;;;;;20.75;17.75;;;;;30.16;44.40;100941.09;4965994;28;45531;-67
2023/09/11 00:37:29;;;;;;;;;23.25;22.50;;;;;30.18;44.19;100947.25;4959081;28;45589;-66
2023/09/11 00:40:00;;;;;;;;;23.75;20.75;;;;;30.18;43.92;100942.72;4959618;28;45485;-65
2023/09/11 00:42:26;;;;;;;;;18.50;17.75;;;;;30.15;43.98;100945.63;4952161;28;46285;-68
2023/09/11 00:44:53;;;;;;;;;25.00;23.00;;;;;30.13;44.67;100947.59;4966688;28;45410;-66
2023/09/11 00:47:20;;;;;;;;;21.50;18.25;;;;;30.09;43.97;100934.44;4960898;28;45522;-65
2023/09/11 00:49:45;;;;;;;;;21.25;18.25;;;;;30.09;44.54;100942.53;4959026;27;45533;-66
2023/09/11 00:52:12;;;;;;;;;23.25;21.50;;;;;30.08;44.27;100941.69;4958780;28;45500;-66
2023/09/11 00:54:38;;;;;;;;;21.75;20.00;;;;;30.00;44.18;100934.19;4960731;28;45284;-67
2023/09/11 00:57:05;;;;;;;;;19.75;19.00;;;;;30.01;43.73;100935.91;4959764;28;45605;-67
2023/09/11 00:59:31;;;;;;;;;23.25;20.75;;;;;29.94;44.63;100939.19;4961589;28;45542;-66
2023/09/11 01:01:58;;;;;;;;;24.00;23.25;;;;;29.68;44.41;100914.19;4974752;28;45863;-67
2023/09/11 01:04:24;;;;;;;;;20.50;20.00;;;;;29.66;45.00;100914.28;4974701;28;45350;-67
2023/09/11 01:06:49;;;;;;;;;19.75;19.75;;;;;29.74;44.67;100930.78;4976354;28;45455;-64
2023/09/11 01:09:15;;;;;;;;;22.25;19.75;;;;;29.64;44.18;100916.22;4975157;28;45329;-66
2023/09/11 01:11:41;;;;;;;;;19.00;19.00;;;;;29.73;43.52;100928.19;4975947;28;45309;-65
2023/09/11 01:14:06;;;;;;;;;23.00;21.00;;;;;29.73;44.00;100934.47;4974449;28;45317;-66
2023/09/11 01:16:43;;;;;;;;;18.25;16.25;;;;;29.72;43.33;100926.47;4964297;28;45441;-65
2023/09/11 01:19:37;;;;;;;;;21.75;20.00;;;;;29.73;43.81;100928.19;4975658;28;45460;-67
2023/09/11 01:22:41;;;;;;;;;19.50;16.25;;;;;29.66;43.87;100924.19;4973976;28;45331;-67
2023/09/11 01:25:51;;;;;;;;;19.50;17.75;;;;;29.69;43.70;100924.88;4959387;28;45522;-67
2023/09/11 01:28:58;;;;;;;;;15.50;15.50;;;;;29.65;43.55;100920.63;4974555;28;45453;-66
2023/09/11 01:31:26;;;;;;;;;17.75;17.75;;;;;29.59;43.65;100915.72;4960317;28;45472;-65
2023/09/11 01:33:54;;;;;;;;;17.25;15.50;;;;;29.62;43.75;100918.19;4974035;28;46256;-67
2023/09/11 01:36:20;;;;;;;;;18.50;17.75;;;;;29.65;43.62;100928.72;4974655;28;45161;-66
2023/09/11 01:38:45;;;;;;;;;15.00;14.50;;;;;29.65;43.51;100931.44;4974420;28;45384;-64
2023/09/11 01:41:13;;;;;;;;;20.75;18.00;;;;;29.61;43.07;100924.53;4974438;28;45346;-64
2023/09/11 01:43:47;;;;;;;;;18.25;18.25;;;;;29.62;43.42;100937.06;4973940;28;45453;-67
2023/09/11 01:46:14;;;;;;;;;21.00;16.50;;;;;29.49;43.79;100920.91;4989001;28;45471;-65
2023/09/11 01:48:42;;;;;;;;;19.50;19.25;;;;;29.58;43.76;100930.16;4972795;28;45312;-66
2023/09/11 01:51:08;;;;;;;;;19.50;17.75;;;;;29.55;43.79;100931.25;4974109;28;45444;-65
2023/09/11 01:53:34;;;;;;;;;21.00;17.00;;;;;29.56;43.41;100932.97;4973598;28;45972;-66
2023/09/11 01:56:00;;;;;;;;;17.75;17.75;;;;;29.55;43.58;100930.41;4973542;28;45763;-67
2023/09/11 01:58:25;;;;;;;;;18.75;17.25;;;;;29.34;43.55;100901.34;4955834;28;45728;-66
2023/09/11 02:00:51;;;;;;;;;19.75;18.00;;;;;29.49;43.57;100933.56;4959057;28;45624;-67
2023/09/11 02:03:16;;;;;;;;;21.25;20.00;;;;;29.42;43.60;100918.78;4975011;28;46201;-66
2023/09/11 02:05:42;;;;;;;;;16.00;16.00;;;;;29.43;44.10;100939.44;4974407;28;45542;-66
2023/09/11 02:08:07;;;;;;;;;18.25;18.25;;;;;29.34;44.46;100927.47;4977287;28;45883;-67
2023/09/11 02:10:33;;;;;;;;;8.00;8.00;;;;;29.36;43.80;100937.16;4977545;28;45566;-66
2023/09/11 02:12:58;;;;;;;;;18.25;16.75;;;;;29.34;44.19;100930.16;4976624;28;45510;-64
2023/09/11 02:15:24;;;;;;;;;20.25;17.75;;;;;29.26;44.42;100932.56;4972664;28;45407;-65
2023/09/11 02:17:49;;;;;;;;;18.75;18.00;;;;;29.17;43.76;100918.78;4972063;28;45449;-66
2023/09/11 02:20:15;;;;;;;;;18.25;17.25;;;;;29.33;43.82;100929.31;4977359;28;45380;-65
2023/09/11 02:22:41;;;;;;;;;22.00;16.75;;;;;29.29;44.38;100926.94;4977122;28;46257;-64
2023/09/11 02:25:06;;;;;;;;;19.75;19.00;;;;;29.21;44.43;100923.94;4976118;28;45371;-65
2023/09/11 02:27:32;;;;;;;;;18.25;17.50;;;;;29.23;43.89;100930.09;4976269;28;45378;-64
2023/09/11 02:29:58;;;;;;;;;18.00;15.75;;;;;29.10;43.89;100913.94;4976387;28;45477;-65
2023/09/11 02:32:23;;;;;;;;;16.00;15.25;;;;;29.14;43.94;100931.66;4976637;28;46994;-64
2023/09/11 02:34:49;;;;;;;;;15.75;15.75;;;;;29.12;43.98;100928.19;4976243;28;45464;-65
2023/09/11 02:37:14;;;;;;;;;19.50;17.25;;;;;29.09;43.96;100925.69;4976621;28;45494;-67
2023/09/11 02:39:40;;;;;;;;;20.50;17.75;;;;;29.07;43.80;100931.22;4975298;28;45481;-66
2023/09/11 02:42:06;;;;;;;;;19.75;18.75;;;;;28.87;44.37;100924.53;4977003;28;46017;-65
2023/09/11 02:44:31;;;;;;;;;18.25;17.00;;;;;28.83;43.75;100916.75;4976828;28;45381;-67
2023/09/11 02:46:57;;;;;;;;;18.25;18.25;;;;;28.86;44.09;100924.66;4977356;28;45414;-65
2023/09/11 02:49:22;;;;;;;;;19.50;18.50;;;;;28.94;44.08;100933.03;4976943;28;45373;-66
2023/09/11 02:51:48;;;;;;;;;22.50;19.25;;;;;28.95;44.17;100932.09;4977299;28;45459;-65
2023/09/11 02:54:13;;;;;;;;;14.75;14.75;;;;;28.80;44.30;100900.81;4977352;28;45738;-65
2023/09/11 02:56:39;;;;;;;;;17.75;14.00;;;;;28.89;44.16;100910.94;4977707;28;45491;-66
2023/09/11 02:59:05;;;;;;;;;18.75;17.25;;;;;28.91;44.27;100917.94;4993043;28;45358;-66
2023/09/11 03:01:31;;;;;;;;;16.00;15.50;;;;;28.89;43.97;100921.72;4974830;28;45749;-66
2023/09/11 03:03:57;;;;;;;;;18.25;17.50;;;;;28.90;44.17;100920.75;4956469;28;45405;-67
2023/09/11 03:06:22;;;;;;;;;19.75;17.75;;;;;28.91;44.24;100927.88;4959935;28;45399;-66
2023/09/11 03:08:48;;;;;;;;;17.00;16.50;;;;;28.87;44.10;100918.28;4959899;28;45613;-66
2023/09/11 03:11:14;;;;;;;;;18.25;16.00;;;;;28.82;44.03;100905.13;4974761;28;45532;-68
2023/09/11 03:13:39;;;;;;;;;17.75;16.75;;;;;28.85;43.83;100915.69;4975664;28;45413;-67
2023/09/11 03:16:13;;;;;;;;;18.75;17.00;;;;;28.82;43.78;100907.81;4969155;28;45634;-66
2023/09/11 03:18:39;;;;;;;;;11.50;11.00;;;;;28.78;43.91;100900.91;4976184;28;45394;-65
2023/09/11 03:21:07;;;;;;;;;17.25;17.25;;;;;28.73;44.15;100898.56;4975384;28;45494;-68
2023/09/11 03:23:33;;;;;;;;;16.50;15.75;;;;;28.73;43.71;100889.63;4975615;28;45361;-67
2023/09/11 03:25:58;;;;;;;;;17.25;15.75;;;;;28.73;44.00;100879.69;4990725;27;45520;-65
2023/09/11 03:28:27;;;;;;;;;16.50;16.50;;;;;28.72;44.08;100879.81;4976447;28;45375;-66
2023/09/11 03:30:52;;;;;;;;;16.75;16.75;;;;;28.69;44.09;100880.91;4975549;28;45405;-66
2023/09/11 03:33:18;;;;;;;;;20.00;15.75;;;;;28.62;43.91;100859.91;4966848;28;45433;-65
2023/09/11 03:35:46;;;;;;;;;20.00;16.50;;;;;28.63;43.95;100875.94;4975557;28;45441;-64
2023/09/11 03:38:12;;;;;;;;;16.00;16.00;;;;;28.58;43.96;100875.41;4991324;28;45300;-66
2023/09/11 03:40:38;;;;;;;;;21.00;16.75;;;;;28.67;43.90;100888.22;4974099;28;46902;-66
2023/09/11 03:43:04;;;;;;;;;16.75;16.75;;;;;28.65;44.26;100879.41;4975740;28;45381;-64
2023/09/11 03:45:29;;;;;;;;;14.25;14.00;;;;;28.58;44.06;100864.63;4975533;28;45405;-64
2023/09/11 03:47:55;;;;;;;;;18.25;16.75;;;;;28.62;44.57;100865.28;4976260;28;45479;-66
2023/09/11 03:50:20;;;;;;;;;16.75;15.25;;;;;28.55;43.99;100856.78;4975181;28;45330;-64
2023/09/11 03:52:46;;;;;;;;;18.25;18.25;;;;;28.57;44.45;100860.25;4970426;28;45401;-64
2023/09/11 03:55:11;;;;;;;;;17.25;16.25;;;;;28.49;44.24;100851.81;4974290;28;45363;-66
2023/09/11 03:57:37;;;;;;;;;18.25;15.25;;;;;28.49;44.18;100863.44;4972332;28;45461;-66
2023/09/11 04:00:07;;;;;;;;;16.75;15.75;;;;;28.36;43.96;100853.63;4967933;28;45948;-67
2023/09/11 04:02:33;;;;;;;;;16.75;16.50;;;;;28.44;43.77;100856.66;4968695;28;45525;-70
2023/09/11 04:04:59;;;;;;;;;18.50;15.50;;;;;28.42;43.52;100854.06;4974795;28;45461;-67
2023/09/11 04:07:25;;;;;;;;;21.50;16.25;;;;;28.51;43.80;100863.34;4976653;28;45687;-66
2023/09/11 04:09:50;;;;;;;;;17.75;17.75;;;;;28.53;43.71;100861.41;4974211;28;45596;-67
2023/09/11 04:12:17;;;;;;;;;16.50;13.25;;;;;28.53;43.06;100864.13;4974817;28;45497;-66
2023/09/11 04:14:45;;;;;;;;;17.50;16.00;;;;;28.55;43.22;100867.56;4974239;28;45284;-67
2023/09/11 04:17:11;;;;;;;;;17.75;14.75;;;;;28.57;43.03;100867.44;4966130;28;45377;-66
2023/09/11 04:19:38;;;;;;;;;15.00;13.50;;;;;28.56;43.00;100855.78;4974121;28;45330;-66
2023/09/11 04:22:04;;;;;;;;;17.50;15.25;;;;;28.56;42.77;100850.41;4970133;28;45266;-66
2023/09/11 04:24:30;;;;;;;;;18.00;14.75;;;;;28.52;42.75;100841.69;4967753;28;45537;-67
2023/09/11 04:26:56;;;;;;;;;16.75;13.50;;;;;28.53;42.65;100835.34;4974146;28;45305;-67
2023/09/11 04:29:22;;;;;;;;;13.75;13.25;;;;;28.55;42.43;100846.00;4965756;28;45514;-67
2023/09/11 04:31:47;;;;;;;;;15.50;13.00;;;;;28.55;42.63;100846.00;4971496;28;45551;-68
2023/09/11 04:34:13;;;;;;;;;13.25;13.25;;;;;28.53;42.71;100832.63;4975429;28;45394;-67
2023/09/11 04:36:39;;;;;;;;;16.00;14.75;;;;;28.52;42.53;100830.94;4976591;28;45491;-66
2023/09/11 04:39:04;;;;;;;;;18.00;14.00;;;;;28.44;42.91;100835.09;4974518;28;46133;-66
2023/09/11 04:41:30;;;;;;;;;11.00;9.50;;;;;28.45;43.09;100842.19;4975065;28;45406;-67
2023/09/11 04:43:55;;;;;;;;;14.50;13.50;;;;;28.43;43.04;100838.78;4973843;28;45604;-67
2023/09/11 04:46:21;;;;;;;;;17.00;14.25;;;;;28.34;43.09;100841.13;4975804;28;46335;-66
2023/09/11 04:48:47;;;;;;;;;15.00;15.00;;;;;28.28;43.25;100841.56;4975365;28;45795;-66
2023/09/11 04:51:19;;;;;;;;;15.00;14.75;;;;;28.20;42.83;100832.31;4973559;28;45615;-67
2023/09/11 04:53:45;;;;;;;;;14.75;12.75;;;;;28.27;43.26;100845.22;4990297;28;45461;-66
2023/09/11 04:56:10;;;;;;;;;17.25;14.00;;;;;28.25;43.59;100841.78;4975432;28;45371;-66
2023/09/11 04:58:36;;;;;;;;;15.25;15.25;;;;;28.08;43.42;100832.22;4976243;28;46474;-67
2023/09/11 05:01:03;;;;;;;;;15.50;15.50;;;;;28.04;44.11;100841.44;4972986;28;45496;-66
2023/09/11 05:03:28;;;;;;;;;17.25;15.50;;;;;27.85;44.63;100846.41;4964186;28;45535;-66
2023/09/11 05:05:54;;;;;;;;;18.75;17.50;;;;;27.70;45.26;100838.38;4962055;28;45521;-66
2023/09/11 05:08:20;;;;;;;;;18.75;15.75;;;;;27.65;45.14;100829.75;4974856;28;45527;-67
2023/09/11 05:10:45;;;;;;;;;17.75;16.50;;;;;27.43;45.14;100802.56;4976140;28;45505;-66
2023/09/11 05:13:11;;;;;;;;;17.00;15.50;;;;;27.49;45.92;100838.00;4975531;28;45537;-66
2023/09/11 05:15:37;;;;;;;;;14.50;14.25;;;;;27.61;45.50;100840.84;4969446;28;45446;-65
2023/09/11 05:18:03;;;;;;;;;13.75;13.00;;;;;27.65;45.49;100829.75;4957464;28;45387;-66
2023/09/11 05:20:30;;;;;;;;;21.75;16.25;;;;;27.77;45.13;100841.50;4975902;28;45374;-66
2023/09/11 05:22:56;;;;;;;;;16.50;15.50;;;;;27.65;45.18;100831.59;4989246;27;45450;-67
2023/09/11 05:25:22;;;;;;;;;18.50;16.50;;;;;27.65;44.96;100837.84;4974555;28;45457;-67
2023/09/11 05:27:48;;;;;;;;;14.00;12.75;;;;;27.72;44.95;100845.50;4974292;28;45998;-66
2023/09/11 05:30:14;;;;;;;;;20.25;15.50;;;;;27.78;44.92;100853.13;4969179;28;45476;-66
2023/09/11 05:32:39;;;;;;;;;17.00;16.00;;;;;27.84;44.76;100850.06;4967832;28;45480;-66
2023/09/11 05:35:06;;;;;;;;;18.00;15.00;;;;;27.80;45.00;100845.81;4967972;28;45697;-66
2023/09/11 05:37:32;;;;;;;;;17.75;13.00;;;;;27.87;45.01;100849.84;4967763;28;46344;-66
2023/09/11 05:39:58;;;;;;;;;14.00;14.00;;;;;27.82;44.99;100850.13;4964170;28;45365;-66
2023/09/11 05:42:24;;;;;;;;;16.50;15.25;;;;;27.85;44.95;100849.94;4962032;28;45406;-66
2023/09/11 05:44:50;;;;;;;;;14.50;12.75;;;;;27.77;44.88;100835.28;4964265;28;45491;-66
2023/09/11 05:47:15;;;;;;;;;12.50;12.25;;;;;27.93;44.86;100852.13;4967896;28;45527;-65
2023/09/11 05:49:41;;;;;;;;;16.25;15.75;;;;;27.97;44.53;100853.63;4966569;28;45549;-66
2023/09/11 05:52:13;;;;;;;;;15.00;14.00;;;;;27.91;44.41;100832.53;4972378;28;45412;-66
2023/09/11 05:54:41;;;;;;;;;15.25;13.50;;;;;28.08;44.49;100847.50;4940713;28;45573;-67
2023/09/11 05:57:07;;;;;;;;;14.50;12.75;;;;;28.10;44.25;100837.50;4958274;28;46141;-66
2023/09/11 05:59:33;;;;;;;;;18.00;15.75;;;;;28.20;44.15;100843.09;4955169;28;45531;-64
2023/09/11 06:01:58;;;;;;;;;15.00;14.00;;;;;28.31;43.93;100841.38;4960602;28;45346;-66
2023/09/11 06:04:24;;;;;;;;;15.25;13.75;;;;;28.44;43.92;100856.66;4969685;28;45497;-66
2023/09/11 06:06:54;;;;;;;;;16.50;14.25;;;;;28.46;43.67;100862.81;4959164;28;46463;-66
2023/09/11 06:09:20;;;;;;;;;17.25;16.50;;;;;28.48;43.36;100867.13;4957015;28;45405;-67
2023/09/11 06:11:45;;;;;;;;;16.00;15.50;;;;;28.47;43.40;100853.75;4964327;28;45407;-66
2023/09/11 06:14:12;;;;;;;;;15.50;15.25;;;;;28.57;43.39;100865.63;4970044;28;45464;-67
2023/09/11 06:16:38;;;;;;;;;18.00;14.25;;;;;28.64;43.19;100863.31;4964091;28;45450;-65
2023/09/11 06:19:03;;;;;;;;;20.25;15.00;;;;;28.74;43.06;100861.72;4970649;28;45537;-67
2023/09/11 06:21:29;;;;;;;;;17.75;15.50;;;;;28.69;43.17;100864.75;4965235;28;45496;-66
2023/09/11 06:23:55;;;;;;;;;16.75;14.50;;;;;28.58;43.13;100848.47;4958681;28;45493;-66
2023/09/11 06:26:21;;;;;;;;;15.25;15.25;;;;;28.69;42.94;100864.75;4969199;28;45600;-66
2023/09/11 06:28:47;;;;;;;;;17.25;16.50;;;;;28.69;42.83;100871.97;4953797;28;45536;-67
2023/09/11 06:31:14;;;;;;;;;18.75;16.50;;;;;28.68;43.02;100859.44;4960330;28;45676;-67
2023/09/11 06:33:40;;;;;;;;;14.75;13.75;;;;;28.75;42.89;100866.97;4962971;28;45445;-66
2023/09/11 06:36:05;;;;;;;;;17.00;14.50;;;;;28.74;43.04;100873.34;4966229;28;45927;-66
2023/09/11 06:38:31;;;;;;;;;19.50;19.50;;;;;28.79;42.94;100866.78;4951854;28;45461;-66
2023/09/11 06:40:57;;;;;;;;;17.75;13.75;;;;;28.86;42.89;100868.03;4957331;28;45559;-67
2023/09/11 06:43:23;;;;;;;;;15.75;15.25;;;;;28.85;42.64;100853.69;4955161;28;45496;-66
2023/09/11 06:45:52;;;;;;;;;15.50;14.25;;;;;28.98;42.56;100867.16;4957933;28;45391;-66
2023/09/11 06:48:18;;;;;;;;;16.50;13.75;;;;;28.81;42.47;100824.38;4955866;28;45549;-67
2023/09/11 06:50:44;;;;;;;;;17.25;15.50;;;;;28.99;42.43;100851.81;4959328;28;45388;-66
2023/09/11 06:53:13;;;;;;;;;22.25;18.25;;;;;29.11;42.37;100854.50;4973683;28;45421;-66
2023/09/11 06:55:46;;;;;;;;;20.75;18.75;;;;;29.10;42.57;100857.31;4971721;28;45416;-66
2023/09/11 06:58:12;;;;;;;;;22.00;17.50;;;;;29.10;42.33;100860.03;4957735;28;45519;-67
2023/09/11 07:00:38;;;;;;;;;15.50;15.25;;;;;29.02;42.20;100849.78;4959981;28;45477;-65
2023/09/11 07:03:04;;;;;;;;;19.25;17.50;;;;;28.98;42.30;100847.41;4957850;28;45482;-66
2023/09/11 07:05:29;;;;;;;;;18.75;18.25;;;;;29.06;42.46;100864.72;4958822;28;46024;-67
2023/09/11 07:07:55;;;;;;;;;20.00;16.75;;;;;29.16;42.06;100860.44;4958811;28;45422;-67
2023/09/11 07:10:21;;;;;;;;;18.50;14.25;;;;;29.25;41.74;100866.97;4968139;28;45367;-67
2023/09/11 07:12:49;;;;;;;;;19.75;16.25;;;;;29.33;41.57;100869.09;4975882;28;45442;-66
2023/09/11 07:15:16;;;;;;;;;17.75;16.75;;;;;29.43;41.29;100880.06;4970703;28;45565;-67
2023/09/11 07:17:42;;;;;;;;;20.25;15.25;;;;;29.42;41.08;100863.00;4953030;28;45339;-67
2023/09/11 07:20:09;;;;;;;;;18.75;15.50;;;;;29.37;41.20;100852.53;4972468;28;45504;-68
2023/09/11 07:22:34;;;;;;;;;18.75;16.25;;;;;29.46;41.61;100883.38;4966510;28;45538;-67
2023/09/11 07:25:03;;;;;;;;;19.00;16.25;;;;;29.55;41.37;100871.03;4974050;28;45686;-67
2023/09/11 07:27:33;;;;;;;;;18.50;15.25;;;;;29.65;41.00;100861.25;4977194;28;45209;-67
2023/09/11 07:30:00;;;;;;;;;16.25;14.25;;;;;29.78;40.59;100870.19;4968903;28;45519;-66
2023/09/11 07:32:25;;;;;;;;;16.75;15.75;;;;;29.74;40.48;100849.78;4966659;28;45426;-69
2023/09/11 07:34:51;;;;;;;;;17.50;15.75;;;;;29.91;39.96;100853.88;4966945;28;45326;-68
2023/09/11 07:37:17;;;;;;;;;13.75;13.25;;;;;29.96;39.97;100858.94;4959750;28;45481;-68
2023/09/11 07:39:42;;;;;;;;;19.00;15.50;;;;;30.02;39.51;100866.56;4971357;28;45623;-66
2023/09/11 07:42:11;;;;;;;;;20.50;15.00;;;;;29.87;40.12;100849.69;4973932;28;46207;-68
2023/09/11 07:44:37;;;;;;;;;18.00;13.25;;;;;30.05;39.95;100873.56;4972458;28;48027;-66
2023/09/11 07:47:02;;;;;;;;;18.00;15.75;;;;;30.02;40.08;100858.47;4966393;28;45330;-66
2023/09/11 07:49:28;;;;;;;;;16.00;16.00;;;;;30.12;39.83;100882.91;4981436;28;45504;-68
2023/09/11 07:51:53;;;;;;;;;17.00;14.50;;;;;30.05;40.18;100881.66;4963910;28;45367;-67
2023/09/11 07:54:21;;;;;;;;;18.75;16.75;;;;;30.09;40.28;100883.13;4975427;28;46114;-67
2023/09/11 07:56:46;;;;;;;;;18.50;16.00;;;;;30.09;39.83;100888.53;4970965;28;45406;-67
2023/09/11 07:59:12;;;;;;;;;19.75;16.25;;;;;30.00;40.06;100882.88;4958276;28;45430;-67
2023/09/11 08:01:37;;;;;;;;;16.50;14.50;;;;;29.92;39.87;100887.13;4975083;28;45433;-68
2023/09/11 08:04:04;;;;;;;;;18.25;15.75;;;;;29.89;40.71;100899.03;4959742;28;45539;-67
2023/09/11 08:06:30;;;;;;;;;17.75;15.75;;;;;29.90;40.42;100899.88;4957529;28;45735;-67
2023/09/11 08:08:58;;;;;;;;;16.75;15.75;;;;;29.85;40.21;100883.19;4948818;28;45472;-69
2023/09/11 08:11:27;;;;;;;;;13.00;13.00;;;;;29.88;40.12;100885.69;4953876;28;45788;-67
2023/09/11 08:13:53;;;;;;;;;15.00;14.50;;;;;29.92;40.25;100884.44;4971483;28;46079;-67
2023/09/11 08:16:19;;;;;;;;;16.75;13.50;;;;;29.89;40.60;100888.22;4972347;28;45492;-70
2023/09/11 08:18:44;;;;;;;;;15.75;15.25;;;;;29.89;41.46;100890.94;4976138;28;45442;-68
2023/09/11 08:21:11;;;;;;;;;15.50;15.50;;;;;29.87;40.86;100889.34;4975855;28;45461;-70
2023/09/11 08:23:36;;;;;;;;;16.50;14.25;;;;;29.83;40.78;100886.03;4975268;28;45974;-69
2023/09/11 08:26:02;;;;;;;;;16.25;14.75;;;;;29.89;40.59;100895.47;4969767;28;45761;-67
2023/09/11 08:28:30;;;;;;;;;20.00;18.50;;;;;29.84;41.19;100897.69;4974651;28;45608;-68
2023/09/11 08:30:57;;;;;;;;;14.75;14.75;;;;;29.94;40.67;100894.13;4971322;28;45445;-65
2023/09/11 08:33:24;;;;;;;;;15.75;15.75;;;;;29.95;41.13;100889.63;4974760;28;46207;-67
2023/09/11 08:35:53;;;;;;;;;19.25;18.50;;;;;30.04;40.51;100898.84;4974029;28;45772;-67
2023/09/11 08:38:29;;;;;;;;;20.25;15.00;;;;;30.07;40.88;100890.50;4970590;27;45540;-66
2023/09/11 08:40:58;;;;;;;;;16.50;15.00;;;;;29.95;40.75;100890.47;4964936;28;45500;-67
2023/09/11 08:43:25;;;;;;;;;19.25;19.00;;;;;29.92;40.90;100895.25;4969059;28;46286;-67
2023/09/11 08:45:55;;;;;;;;;21.00;16.75;;;;;29.83;40.92;100890.53;4965684;28;45464;-66
2023/09/11 08:48:28;;;;;;;;;15.75;14.75;;;;;29.75;41.00;100899.22;4955692;28;45543;-64
2023/09/11 08:51:05;;;;;;;;;18.50;18.50;;;;;29.78;40.99;100901.69;4957099;28;45575;-66
2023/09/11 08:53:32;;;;;;;;;20.25;19.75;;;;;29.75;41.13;100901.94;4956054;28;46173;-66
2023/09/11 08:56:00;;;;;;;;;19.00;18.50;;;;;29.79;41.13;100908.81;4957810;28;45429;-65
2023/09/11 08:58:28;;;;;;;;;19.75;16.25;;;;;29.88;40.85;100913.53;4957747;28;45613;-67
2023/09/11 09:00:55;;;;;;;;;15.75;14.75;;;;;29.94;40.87;100915.75;4959028;28;45488;-66
2023/09/11 09:03:28;;;;;;;;;16.75;16.50;;;;;29.97;40.29;100910.13;4956220;28;46114;-69
2023/09/11 09:05:56;;;;;;;;;13.50;13.50;;;;;30.01;40.65;100917.00;4953948;28;45474;-69
2023/09/11 09:08:22;;;;;;;;;21.25;18.00;;;;;30.03;40.70;100914.19;4956027;28;45462;-68
2023/09/11 09:10:48;;;;;;;;;16.00;14.75;;;;;30.02;40.19;100909.78;4956663;28;45342;-68
2023/09/11 09:13:14;;;;;;;;;17.75;16.25;;;;;30.12;39.92;100913.47;4957646;28;45389;-66
2023/09/11 09:15:41;;;;;;;;;18.25;16.25;;;;;30.21;39.97;100906.50;4957209;28;45525;-66
2023/09/11 09:18:08;;;;;;;;;20.75;17.25;;;;;30.27;40.06;100906.03;4959697;28;45398;-70
2023/09/11 09:20:34;;;;;;;;;20.50;19.00;;;;;30.29;40.01;100905.94;4958132;28;45362;-66
2023/09/11 09:23:01;;;;;;;;;21.25;20.25;;;;;30.33;39.86;100897.47;4957983;28;45503;-68
2023/09/11 09:25:28;;;;;;;;;16.75;15.50;;;;;30.37;40.25;100898.97;4955033;28;45410;-67
2023/09/11 09:27:56;;;;;;;;;21.25;20.25;;;;;30.30;40.50;100897.72;4956470;28;45374;-68
2023/09/11 09:30:26;;;;;;;;;22.00;18.75;;;;;30.07;40.62;100910.28;4957645;28;45561;-67
2023/09/11 09:32:57;;;;;;;;;23.00;19.50;;;;;30.06;41.51;100924.75;5005271;28;46464;-68
2023/09/11 09:35:30;;;;;;;;;18.75;17.50;;;;;30.09;40.88;100956.94;4955882;28;45936;-69
2023/09/11 09:37:57;;;;;;;;;19.75;17.50;;;;;30.11;40.42;100973.88;4974461;28;45464;-69
2023/09/11 09:40:34;;;;;;;;;15.75;15.50;;;;;30.00;40.35;100966.59;4974150;28;45588;-68
2023/09/11 09:43:00;;;;;;;;;16.75;16.75;;;;;29.95;40.04;100968.78;4973881;28;45622;-68
2023/09/11 09:45:34;;;;;;;;;23.00;20.50;;;;;29.77;40.22;100956.69;4973598;28;45511;-68
2023/09/11 09:48:19;;;;;;;;;19.50;15.50;;;;;29.91;39.84;100985.34;4974227;28;45286;-68
2023/09/11 09:50:59;;;;;;;;;18.50;15.50;;;;;29.91;40.66;100980.78;4974907;28;45371;-68
2023/09/11 09:53:28;;;;;;;;;17.25;17.25;;;;;30.02;40.34;100975.44;4974182;28;45462;-68
2023/09/11 09:55:56;;;;;;;;;17.00;16.00;;;;;30.18;40.41;100958.94;4973684;28;45260;-68
2023/09/11 09:58:30;;;;;;;;;18.25;18.25;;;;;30.40;40.42;100947.34;4974363;28;45482;-68
2023/09/11 10:01:04;;;;;;;;;19.50;15.75;;;;;30.69;40.33;100971.22;4974213;28;45376;-69
2023/09/11 10:03:38;;;;;;;;;18.25;18.00;;;;;30.90;39.71;100952.44;4974020;28;45532;-69
2023/09/11 10:06:08;;;;;;;;;16.50;16.50;;;;;31.21;39.54;100967.06;4973222;28;45383;-68
2023/09/11 10:08:34;;;;;;;;;19.75;17.50;;;;;31.43;39.17;100957.22;4972217;28;45459;-68
2023/09/11 10:10:59;;;;;;;;;18.25;15.50;;;;;31.64;38.88;100944.59;4973558;28;45453;-69
2023/09/11 10:13:27;;;;;;;;;21.00;16.50;;;;;31.73;38.44;100951.09;4973619;28;46541;-67
2023/09/11 10:15:56;;;;;;;;;15.50;15.50;;;;;31.72;38.72;100945.78;4966071;28;45622;-67
2023/09/11 10:18:23;;;;;;;;;16.75;16.75;;;;;31.66;38.77;100923.66;4973607;28;45430;-67
2023/09/11 10:20:50;;;;;;;;;16.50;16.25;;;;;31.73;38.74;100936.69;4975097;28;45368;-68
2023/09/11 10:23:16;;;;;;;;;16.00;16.00;;;;;31.72;38.46;100937.69;4974770;28;45485;-68
2023/09/11 10:25:45;;;;;;;;;14.60;12.40;;;;;31.88;38.34;100929.97;4973647;28;45318;-69
2023/09/11 10:28:26;;;;;;;;;17.00;16.00;;;;;32.07;37.78;100932.84;4976752;28;45522;-68
2023/09/11 10:31:13;;;;;;;;;16.00;15.25;;;;;32.20;37.76;100902.88;4992985;28;45752;-66
2023/09/11 10:33:39;;;;;;;;;17.25;16.00;;;;;32.46;37.45;100918.69;4975007;28;47112;-67
2023/09/11 10:36:12;;;;;;;;;13.20;13.20;;;;;32.63;37.11;100925.38;4976235;28;45586;-68
2023/09/11 10:38:40;;;;;;;;;18.80;14.60;;;;;32.82;36.67;100916.44;4977012;28;45334;-68
2023/09/11 10:41:07;;;;;;;;;15.00;14.00;;;;;33.02;36.42;100907.41;4976854;28;45551;-67
2023/09/11 10:43:34;;;;;;;;;19.00;14.50;;;;;33.09;36.12;100908.59;4976157;28;45422;-66
2023/09/11 10:46:19;;;;;;;;;16.40;15.80;;;;;33.20;36.01;100913.06;4975920;28;45460;-66
2023/09/11 10:48:45;;;;;;;;;16.25;16.25;;;;;33.49;36.24;100929.38;4969051;28;45477;-68
2023/09/11 10:51:12;;;;;;;;;19.00;16.75;;;;;33.73;35.84;100933.56;4975104;28;45756;-69
2023/09/11 10:53:39;;;;;;;;;16.25;14.75;;;;;33.86;35.55;100928.72;4963635;28;46889;-69
2023/09/11 10:56:04;;;;;;;;;17.60;15.20;;;;;33.98;35.23;100930.28;4973645;28;45468;-68
2023/09/11 10:58:30;;;;;;;;;21.75;17.25;;;;;34.18;35.00;100950.16;4975637;28;45390;-71
2023/09/11 11:00:58;;;;;;;;;24.00;19.25;;;;;34.13;34.72;100935.31;4971077;28;45429;-69
2023/09/11 11:03:29;;;;;;;;;17.00;15.40;;;;;34.31;34.85;100938.13;4956683;28;45628;-68
2023/09/11 11:05:57;;;;;;;;;14.40;14.20;;;;;34.27;34.51;100947.59;4974542;28;45509;-67
2023/09/11 11:08:23;;;;;;;;;14.40;13.60;;;;;33.95;34.43;100938.69;4976738;28;45368;-68
2023/09/11 11:11:20;;;;;;;;;15.25;15.25;;;;;33.60;34.94;100917.53;4976493;28;45943;-68